createdAt,value
2018-03-28T00:00:54.528Z,70.43
2018-03-28T00:02:55.515Z,67.53
2018-03-28T00:04:57.265Z,81.83
2018-03-28T00:06:58.286Z,67.93
2018-03-28T00:08:59.285Z,64.53
2018-03-28T00:11:00.352Z,73.63
2018-03-28T00:13:01.348Z,63.17
2018-03-28T00:15:02.320Z,65.47
2018-03-28T00:17:03.302Z,66.47
2018-03-28T00:19:04.309Z,72.97
2018-03-28T00:21:05.301Z,68.77
2018-03-28T00:23:06.354Z,59.97
2018-03-28T00:25:07.332Z,74.60
2018-03-28T00:27:08.419Z,75.27
2018-03-28T00:29:10.190Z,68.60
2018-03-28T00:31:11.187Z,70.57
2018-03-28T00:33:12.191Z,73.30
2018-03-28T00:35:13.203Z,65.97
2018-03-28T00:37:14.221Z,65.63
2018-03-28T00:39:15.938Z,74.30
2018-03-28T00:41:16.954Z,62.43
2018-03-28T00:43:17.968Z,67.00
2018-03-28T00:45:19.779Z,67.90
2018-03-28T00:47:21.587Z,66.67
2018-03-28T00:49:22.655Z,63.07
2018-03-28T00:51:35.982Z,65.97
2018-03-28T00:53:37.769Z,66.90
2018-03-28T00:55:38.833Z,61.70
2018-03-28T00:57:39.971Z,58.73
2018-03-28T00:59:41.017Z,57.73
2018-03-28T01:01:42.011Z,76.63
2018-03-28T01:03:43.242Z,74.70
2018-03-28T01:05:44.243Z,65.57
2018-03-28T01:07:45.233Z,66.00
2018-03-28T01:09:46.221Z,67.87
2018-03-28T01:11:48.014Z,70.77
2018-03-28T01:13:49.163Z,64.43
2018-03-28T01:15:50.184Z,64.70
2018-03-28T01:17:51.202Z,80.10
2018-03-28T01:19:52.212Z,61.40
2018-03-28T01:21:53.246Z,61.60
2018-03-28T01:23:54.308Z,63.57
2018-03-28T01:25:55.327Z,64.20
2018-03-28T01:27:57.241Z,84.80
2018-03-28T01:29:58.259Z,62.30
2018-03-28T01:31:59.360Z,71.20
2018-03-28T01:34:01.782Z,73.03
2018-03-28T01:36:03.549Z,77.43
2018-03-28T01:38:04.548Z,70.93
2018-03-28T01:40:06.342Z,77.07
2018-03-28T01:42:07.365Z,64.90
2018-03-28T01:44:09.138Z,69.93
2018-03-28T01:46:10.135Z,82.10
2018-03-28T01:48:11.141Z,69.07
2018-03-28T01:50:13.165Z,78.23
2018-03-28T01:52:14.126Z,73.60
2018-03-28T01:54:15.135Z,66.00
2018-03-28T01:56:16.133Z,78.30
2018-03-28T01:58:17.886Z,70.57
2018-03-28T02:00:18.867Z,63.77
2018-03-28T02:02:19.874Z,83.97
2018-03-28T02:04:20.866Z,73.97
2018-03-28T02:06:21.895Z,74.83
2018-03-28T02:08:22.896Z,73.50
2018-03-28T02:10:23.971Z,76.70
2018-03-28T02:12:24.958Z,85.73
2018-03-28T02:14:26.725Z,79.50
2018-03-28T02:16:27.726Z,85.33
2018-03-28T02:18:29.473Z,73.67
2018-03-28T02:20:30.457Z,74.67
2018-03-28T02:22:31.472Z,84.80
2018-03-28T02:24:32.451Z,83.20
2018-03-28T02:26:33.422Z,82.00
2018-03-28T02:28:34.449Z,86.77
2018-03-28T02:30:35.437Z,79.17
2018-03-28T02:32:36.424Z,80.13
2018-03-28T02:34:38.149Z,81.07
2018-03-28T02:36:39.157Z,99.60
2018-03-28T02:38:40.140Z,81.17
2018-03-28T02:40:41.124Z,79.90
2018-03-28T02:42:42.883Z,81.40
2018-03-28T02:44:43.875Z,88.43
2018-03-28T02:46:44.864Z,87.43
2018-03-28T02:48:45.856Z,85.63
2018-03-28T02:50:46.863Z,83.53
2018-03-28T02:52:47.863Z,84.87
2018-03-28T02:54:48.840Z,77.53
2018-03-28T02:56:49.808Z,82.10
2018-03-28T02:58:50.864Z,80.17
2018-03-28T03:00:51.868Z,89.83
2018-03-28T03:02:52.884Z,79.17
2018-03-28T03:04:53.886Z,75.07
2018-03-28T03:06:54.894Z,72.03
2018-03-28T03:08:55.888Z,76.37
2018-03-28T03:10:56.895Z,85.90
2018-03-28T03:12:57.940Z,87.80
2018-03-28T03:14:58.973Z,77.73
2018-03-28T03:16:59.968Z,80.13
2018-03-28T03:19:00.980Z,79.30
2018-03-28T03:21:01.981Z,75.90
2018-03-28T03:23:03.758Z,73.13
2018-03-28T03:25:04.788Z,71.30
2018-03-28T03:27:06.491Z,81.47
2018-03-28T03:29:07.501Z,82.53
2018-03-28T03:31:09.229Z,77.93
2018-03-28T03:33:10.237Z,74.40
2018-03-28T03:35:11.284Z,77.30
2018-03-28T03:37:12.288Z,75.73
2018-03-28T03:39:13.274Z,75.30
2018-03-28T03:41:14.244Z,73.83
2018-03-28T03:43:15.236Z,82.13
2018-03-28T03:45:16.220Z,77.03
2018-03-28T03:47:17.218Z,79.07
2018-03-28T03:49:18.202Z,86.23
2018-03-28T03:51:19.174Z,88.20
2018-03-28T03:53:20.177Z,76.77
2018-03-28T03:55:21.176Z,70.80
2018-03-28T03:57:22.173Z,70.60
2018-03-28T03:59:23.900Z,71.60
2018-03-28T04:01:24.866Z,82.83
2018-03-28T04:03:25.847Z,67.00
2018-03-28T04:05:26.850Z,85.00
2018-03-28T04:07:27.836Z,71.53
2018-03-28T04:09:29.545Z,77.50
2018-03-28T04:11:30.535Z,75.57
2018-03-28T04:13:32.235Z,86.37
2018-03-28T04:15:33.217Z,78.10
2018-03-28T04:17:34.202Z,73.30
2018-03-28T04:19:35.177Z,75.07
2018-03-28T04:21:36.180Z,75.47
2018-03-28T04:23:37.888Z,82.50
2018-03-28T04:25:38.864Z,70.00
2018-03-28T04:27:39.841Z,71.23
2018-03-28T04:29:41.551Z,75.60
2018-03-28T04:31:43.271Z,74.07
2018-03-28T04:33:44.998Z,71.27
2018-03-28T04:35:46.153Z,71.17
2018-03-28T04:37:47.124Z,69.57
2018-03-28T04:39:48.823Z,75.70
2018-03-28T04:41:49.808Z,64.80
2018-03-28T04:43:50.810Z,71.67
2018-03-28T04:45:51.815Z,69.60
2018-03-28T04:47:53.567Z,95.40
2018-03-28T04:49:54.573Z,72.40
2018-03-28T04:51:55.588Z,68.13
2018-03-28T04:53:57.300Z,70.73
2018-03-28T04:55:58.284Z,79.90
2018-03-28T04:57:59.278Z,65.70
2018-03-28T05:00:00.232Z,68.73
2018-03-28T05:02:01.212Z,67.93
2018-03-28T05:04:02.278Z,65.80
2018-03-28T05:06:03.181Z,72.43
2018-03-28T05:08:04.181Z,70.70
2018-03-28T05:10:05.893Z,70.03
2018-03-28T05:12:06.843Z,65.53
2018-03-28T05:14:07.844Z,67.00
2018-03-28T05:16:09.570Z,69.63
2018-03-28T05:18:10.585Z,62.43
2018-03-28T05:20:11.663Z,71.10
2018-03-28T05:22:12.675Z,65.77
2018-03-28T05:24:13.656Z,71.23
2018-03-28T05:26:14.666Z,64.60
2018-03-28T05:28:15.666Z,63.60
2018-03-28T05:30:16.643Z,64.57
2018-03-28T05:32:17.643Z,62.37
2018-03-28T05:34:18.688Z,65.07
2018-03-28T05:36:19.661Z,67.07
2018-03-28T05:38:21.434Z,66.70
2018-03-28T05:40:22.412Z,77.13
2018-03-28T05:42:23.366Z,69.80
2018-03-28T05:44:24.351Z,76.17
2018-03-28T05:46:25.308Z,63.07
2018-03-28T05:48:27.047Z,68.77
2018-03-28T05:50:28.089Z,70.93
2018-03-28T05:52:29.021Z,67.33
2018-03-28T05:54:30.072Z,67.30
2018-03-28T05:56:31.025Z,66.93
2018-03-28T05:58:32.010Z,68.60
2018-03-28T06:00:32.997Z,66.90
2018-03-28T06:02:34.028Z,63.27
2018-03-28T06:04:35.768Z,69.43
2018-03-28T06:06:37.521Z,59.23
2018-03-28T06:08:38.524Z,61.07
2018-03-28T06:10:39.509Z,70.17
2018-03-28T06:12:40.530Z,65.77
2018-03-28T06:14:41.532Z,71.97
2018-03-28T06:16:42.516Z,68.27
2018-03-28T06:18:43.473Z,62.90
2018-03-28T06:20:44.484Z,60.70
2018-03-28T06:22:45.461Z,76.00
2018-03-28T06:24:46.462Z,69.83
2018-03-28T06:26:47.459Z,67.27
2018-03-28T06:28:48.459Z,66.07
2018-03-28T06:30:49.472Z,57.27
2018-03-28T06:32:50.455Z,67.17
2018-03-28T06:34:51.461Z,67.20
2018-03-28T06:36:52.437Z,68.80
2018-03-28T06:38:54.161Z,62.60
2018-03-28T06:40:55.193Z,58.63
2018-03-28T06:42:56.165Z,68.77
2018-03-28T06:44:57.158Z,62.93
2018-03-28T06:46:58.131Z,64.60
2018-03-28T06:48:59.114Z,74.47
2018-03-28T06:51:00.122Z,62.50
2018-03-28T06:53:01.104Z,63.27
2018-03-28T06:55:02.107Z,67.13
2018-03-28T06:57:03.181Z,65.97
2018-03-28T06:59:04.177Z,62.13
2018-03-28T07:01:05.156Z,59.70
2018-03-28T07:03:06.136Z,65.07
2018-03-28T07:05:07.150Z,64.63
2018-03-28T07:07:08.166Z,66.73
2018-03-28T07:09:09.174Z,67.40
2018-03-28T07:11:10.126Z,66.63
2018-03-28T07:13:11.097Z,64.07
2018-03-28T07:15:12.064Z,65.00
2018-03-28T07:17:13.068Z,63.33
2018-03-28T07:19:14.095Z,67.07
2018-03-28T07:21:15.582Z,64.07
2018-03-28T07:23:18.188Z,63.20
2018-03-28T07:25:20.290Z,74.47
2018-03-28T07:27:21.403Z,71.70
2018-03-28T07:29:23.241Z,61.37
2018-03-28T07:31:26.445Z,72.37
2018-03-28T07:33:28.707Z,70.20
2018-03-28T07:35:29.725Z,68.33
2018-03-28T07:37:30.715Z,70.77
2018-03-28T07:39:31.788Z,69.43
2018-03-28T07:41:32.776Z,71.47
2018-03-28T07:43:33.873Z,77.83
2018-03-28T07:45:34.876Z,73.03
2018-03-28T07:47:35.848Z,72.80
2018-03-28T07:49:36.863Z,68.57
2018-03-28T07:51:37.843Z,68.17
2018-03-28T07:53:38.788Z,63.43
2018-03-28T07:55:39.783Z,80.53
2018-03-28T07:57:40.748Z,66.80
2018-03-28T07:59:41.773Z,76.03
2018-03-28T08:01:42.757Z,65.97
2018-03-28T08:03:43.735Z,74.17
2018-03-28T08:05:44.723Z,70.50
2018-03-28T08:07:45.758Z,71.90
2018-03-28T08:09:46.748Z,59.83
2018-03-28T08:11:47.731Z,74.13
2018-03-28T08:13:49.445Z,66.60
2018-03-28T08:15:50.458Z,73.10
2018-03-28T08:17:51.420Z,77.27
2018-03-28T08:19:53.172Z,90.07
2018-03-28T08:21:54.166Z,83.00
2018-03-28T08:23:55.152Z,78.87
2018-03-28T08:25:56.144Z,87.13
2018-03-28T08:27:57.104Z,94.03
2018-03-28T08:29:58.059Z,86.80
2018-03-28T08:31:59.027Z,88.47
2018-03-28T08:33:59.992Z,86.90
2018-03-28T08:36:01.000Z,82.00
2018-03-28T08:38:02.736Z,83.07
2018-03-28T08:40:03.705Z,76.60
2018-03-28T08:42:04.702Z,78.00
2018-03-28T08:44:05.687Z,89.77
2018-03-28T08:46:06.663Z,84.57
2018-03-28T08:48:08.395Z,73.00
2018-03-28T08:50:10.152Z,77.53
2018-03-28T08:52:11.223Z,87.97
2018-03-28T08:54:12.172Z,96.53
2018-03-28T08:56:13.174Z,94.47
2018-03-28T08:58:14.152Z,99.50
2018-03-28T09:00:15.123Z,90.90
2018-03-28T09:02:16.830Z,101.10
2018-03-28T09:04:17.812Z,105.47
2018-03-28T09:06:18.849Z,94.33
2018-03-28T09:08:19.991Z,119.93
2018-03-28T09:10:20.972Z,103.37
2018-03-28T09:12:21.973Z,107.77
2018-03-28T09:14:22.944Z,106.93
2018-03-28T09:16:23.942Z,94.50
2018-03-28T09:18:24.917Z,108.53
2018-03-28T09:20:25.914Z,100.07
2018-03-28T09:22:26.922Z,103.40
2018-03-28T09:24:27.954Z,125.20
2018-03-28T09:26:28.941Z,111.10
2018-03-28T09:28:29.937Z,117.10
2018-03-28T09:30:30.971Z,104.57
2018-03-28T09:32:31.960Z,100.90
2018-03-28T09:34:33.150Z,98.27
2018-03-28T09:36:34.148Z,102.40
2018-03-28T09:38:35.105Z,96.43
2018-03-28T09:40:36.113Z,101.77
2018-03-28T09:42:37.114Z,108.37
2018-03-28T09:44:38.862Z,111.00
2018-03-28T09:46:39.867Z,112.43
2018-03-28T09:48:43.805Z,109.23
2018-03-28T09:50:45.528Z,109.37
2018-03-28T09:52:46.535Z,115.17
2018-03-28T09:54:47.508Z,113.87
2018-03-28T09:56:48.782Z,126.23
2018-03-28T09:58:49.945Z,136.67
2018-03-28T10:00:56.941Z,161.23
2018-03-28T10:03:04.228Z,143.50
2018-03-28T10:05:05.321Z,131.20
2018-03-28T10:07:06.460Z,128.27
2018-03-28T10:09:07.525Z,149.73
2018-03-28T10:11:10.405Z,149.17
2018-03-28T10:13:14.441Z,140.00
2018-03-28T10:15:17.052Z,153.47
2018-03-28T10:17:18.910Z,155.50
2018-03-28T10:19:20.625Z,164.47
2018-03-28T10:23:27.273Z,157.73
2018-03-28T10:25:28.260Z,163.07
2018-03-28T10:27:29.233Z,152.93
2018-03-28T10:29:30.236Z,158.47
2018-03-28T10:31:31.219Z,155.57
2018-03-28T10:33:32.228Z,149.17
2018-03-28T10:35:33.972Z,150.70
2018-03-28T10:37:34.941Z,149.80
2018-03-28T10:39:35.925Z,142.97
2018-03-28T10:41:36.900Z,140.20
2018-03-28T10:43:37.905Z,154.80
2018-03-28T10:45:38.885Z,134.23
2018-03-28T10:47:39.873Z,144.97
2018-03-28T10:49:40.864Z,155.67
2018-03-28T10:51:41.824Z,136.60
2018-03-28T10:53:42.805Z,149.70
2018-03-28T10:55:43.759Z,138.77
2018-03-28T10:57:44.718Z,159.97
2018-03-28T10:59:45.667Z,141.90
2018-03-28T11:01:46.616Z,141.27
2018-03-28T11:03:47.562Z,136.40
2018-03-28T11:05:48.534Z,145.83
2018-03-28T11:07:49.522Z,133.13
2018-03-28T11:09:50.518Z,128.90
2018-03-28T11:11:51.505Z,131.40
2018-03-28T11:13:53.311Z,138.00
2018-03-28T11:15:54.404Z,124.80
2018-03-28T11:17:56.105Z,129.23
2018-03-28T11:19:57.087Z,134.17
2018-03-28T11:21:58.085Z,113.03
2018-03-28T11:23:59.098Z,112.47
2018-03-28T11:26:00.085Z,121.73
2018-03-28T11:28:01.125Z,113.40
2018-03-28T11:30:02.164Z,122.30
2018-03-28T11:32:03.175Z,116.80
2018-03-28T11:34:04.314Z,116.87
2018-03-28T11:36:05.308Z,143.80
2018-03-28T11:38:09.498Z,113.47
2018-03-28T11:40:10.560Z,130.20
2018-03-28T11:42:12.339Z,133.33
2018-03-28T11:44:14.133Z,110.33
2018-03-28T11:46:15.796Z,110.50
2018-03-28T11:48:17.566Z,120.67
2018-03-28T11:50:18.759Z,139.67
2018-03-28T11:52:19.732Z,109.47
2018-03-28T11:54:20.762Z,122.07
2018-03-28T11:56:22.482Z,113.43
2018-03-28T11:58:23.596Z,105.50
2018-03-28T12:00:25.291Z,91.83
2018-03-28T12:02:26.293Z,110.57
2018-03-28T12:04:28.006Z,114.63
2018-03-28T12:06:28.976Z,117.43
2018-03-28T12:08:29.943Z,94.17
2018-03-28T12:10:31.656Z,93.70
2018-03-28T12:12:32.619Z,88.37
2018-03-28T12:14:33.641Z,90.30
2018-03-28T12:16:34.641Z,91.30
2018-03-28T12:18:35.601Z,69.40
2018-03-28T12:20:37.336Z,79.47
2018-03-28T12:22:38.370Z,73.00
2018-03-28T12:24:39.365Z,72.50
2018-03-28T12:26:41.085Z,69.53
2018-03-28T12:28:42.050Z,77.57
2018-03-28T12:30:43.052Z,70.83
2018-03-28T12:32:44.004Z,72.90
2018-03-28T12:34:45.013Z,72.07
2018-03-28T12:36:46.755Z,75.73
2018-03-28T12:38:47.722Z,70.83
2018-03-28T12:40:49.420Z,80.03
2018-03-28T12:42:50.380Z,86.47
2018-03-28T12:44:51.346Z,89.67
2018-03-28T12:46:52.345Z,72.53
2018-03-28T12:48:53.329Z,77.37
2018-03-28T12:50:54.287Z,82.63
2018-03-28T12:52:55.278Z,68.20
2018-03-28T12:54:56.249Z,77.47
2018-03-28T12:56:57.200Z,70.73
2018-03-28T12:58:58.172Z,81.07
2018-03-28T13:01:01.210Z,83.83
2018-03-28T13:03:02.289Z,87.53
2018-03-28T13:05:03.300Z,85.87
2018-03-28T13:07:04.256Z,90.80
2018-03-28T13:09:05.240Z,97.27
2018-03-28T13:11:06.292Z,109.17
2018-03-28T13:13:07.245Z,106.30
2018-03-28T13:15:08.230Z,98.40
2018-03-28T13:17:09.960Z,102.10
2018-03-28T13:19:10.941Z,103.20
2018-03-28T13:21:12.635Z,110.33
2018-03-28T13:23:13.616Z,103.60
2018-03-28T13:25:14.616Z,101.33
2018-03-28T13:27:15.597Z,97.67
2018-03-28T13:29:16.583Z,83.63
2018-03-28T13:31:17.543Z,89.60
2018-03-28T13:33:18.531Z,97.67
2018-03-28T13:35:19.508Z,91.17
2018-03-28T13:37:21.242Z,86.50
2018-03-28T13:39:22.187Z,93.63
2018-03-28T13:41:23.168Z,92.33
2018-03-28T13:43:24.860Z,87.77
2018-03-28T13:45:25.852Z,89.00
2018-03-28T13:47:26.854Z,90.63
2018-03-28T13:49:27.832Z,96.73
2018-03-28T13:51:28.799Z,87.83
2018-03-28T13:53:29.743Z,83.00
2018-03-28T13:55:30.692Z,99.40
2018-03-28T13:57:31.655Z,113.03
2018-03-28T13:59:33.376Z,127.40
2018-03-28T14:01:34.421Z,124.57
2018-03-28T14:03:35.392Z,128.53
2018-03-28T14:05:36.365Z,127.77
2018-03-28T14:07:38.163Z,134.97
2018-03-28T14:09:39.132Z,140.53
2018-03-28T14:11:40.092Z,128.40
2018-03-28T14:13:41.103Z,129.50
2018-03-28T14:15:42.072Z,132.10
2018-03-28T14:17:43.048Z,127.43
2018-03-28T14:19:44.037Z,115.53
2018-03-28T14:21:45.045Z,125.40
2018-03-28T14:23:45.978Z,115.53
2018-03-28T14:25:46.948Z,115.07
2018-03-28T14:27:49.394Z,113.37
2018-03-28T14:29:50.377Z,115.27
2018-03-28T14:31:52.097Z,114.67
2018-03-28T14:33:53.060Z,111.70
2018-03-28T14:35:54.055Z,127.27
2018-03-28T14:37:55.059Z,117.67
2018-03-28T14:39:56.020Z,119.33
2018-03-28T14:41:57.768Z,107.50
2018-03-28T14:43:58.741Z,119.93
2018-03-28T14:46:03.568Z,111.37
2018-03-28T14:48:05.289Z,101.33
2018-03-28T14:50:06.312Z,122.50
2018-03-28T14:52:07.312Z,101.73
2018-03-28T14:54:08.281Z,110.93
2018-03-28T14:56:09.260Z,107.13
2018-03-28T14:58:10.235Z,119.73
2018-03-28T15:00:11.265Z,118.60
2018-03-28T15:02:12.338Z,124.73
2018-03-28T15:04:13.290Z,112.23
2018-03-28T15:06:14.249Z,114.60
2018-03-28T15:08:16.453Z,119.13
2018-03-28T15:10:17.440Z,121.73
2018-03-28T15:12:18.383Z,106.37
2018-03-28T15:14:19.375Z,109.37
2018-03-28T15:16:21.105Z,112.33
2018-03-28T15:18:22.123Z,120.77
2018-03-28T15:20:23.656Z,106.23
2018-03-28T15:22:25.397Z,114.20
2018-03-28T15:24:27.105Z,114.60
2018-03-28T15:26:28.068Z,108.40
2018-03-28T15:28:29.047Z,97.80
2018-03-28T15:30:30.080Z,92.37
2018-03-28T15:32:31.051Z,96.60
2018-03-28T15:34:33.409Z,93.83
2018-03-28T15:36:34.376Z,90.87
2018-03-28T15:38:36.052Z,96.53
2018-03-28T15:40:38.113Z,85.70
2018-03-28T15:42:39.124Z,88.40
2018-03-28T15:44:40.123Z,87.20
2018-03-28T15:46:41.131Z,86.33
2018-03-28T15:48:42.087Z,79.90
2018-03-28T15:50:44.825Z,88.63
2018-03-28T15:52:45.897Z,78.87
2018-03-28T15:54:48.551Z,83.00
2018-03-28T15:57:25.633Z,80.53
2018-03-28T15:59:42.662Z,83.40
2018-03-28T16:01:44.446Z,81.87
2018-03-28T16:03:45.436Z,71.13
2018-03-28T16:05:47.196Z,75.20
2018-03-28T16:07:48.184Z,81.97
2018-03-28T16:09:49.204Z,73.00
2018-03-28T16:11:50.932Z,94.90
2018-03-28T16:13:51.928Z,91.07
2018-03-28T16:15:52.888Z,100.83
2018-03-28T16:17:53.875Z,94.33
2018-03-28T16:19:54.851Z,96.70
2018-03-28T16:21:56.573Z,99.47
2018-03-28T16:23:57.569Z,90.53
2018-03-28T16:25:58.560Z,94.07
2018-03-28T16:27:59.535Z,80.83
2018-03-28T16:30:00.521Z,83.93
2018-03-28T16:32:01.535Z,74.83
2018-03-28T16:36:15.730Z,77.87
2018-03-28T16:38:17.408Z,73.83
2018-03-28T16:40:18.348Z,81.40
2018-03-28T16:42:20.080Z,70.77
2018-03-28T16:44:21.050Z,76.63
2018-03-28T16:46:22.735Z,80.50
2018-03-28T16:48:23.707Z,64.07
2018-03-28T16:50:24.712Z,80.77
2018-03-28T16:52:25.711Z,81.60
2018-03-28T16:54:26.734Z,71.30
2018-03-28T16:56:27.699Z,79.50
2018-03-28T16:58:28.730Z,79.37
2018-03-28T17:00:29.673Z,77.30
2018-03-28T17:02:30.624Z,70.13
2018-03-28T17:04:31.569Z,71.60
2018-03-28T17:06:32.520Z,70.80
2018-03-28T17:08:33.467Z,66.90
2018-03-28T17:10:38.328Z,64.17
2018-03-28T17:12:39.311Z,64.30
2018-03-28T17:14:41.011Z,66.70
2018-03-28T17:16:41.981Z,73.53
2018-03-28T17:18:42.988Z,80.17
2018-03-28T17:20:43.960Z,85.23
2018-03-28T17:22:44.898Z,83.80
2018-03-28T17:24:45.837Z,76.07
2018-03-28T17:26:46.857Z,81.63
2018-03-28T17:28:47.800Z,73.43
2018-03-28T17:30:48.792Z,80.60
2018-03-28T17:32:49.796Z,72.20
2018-03-28T17:34:50.820Z,66.80
2018-03-28T17:36:52.572Z,73.03
2018-03-28T17:38:53.547Z,71.27
2018-03-28T17:40:55.259Z,79.07
2018-03-28T17:42:56.261Z,70.10
2018-03-28T17:44:57.208Z,76.37
2018-03-28T17:46:58.169Z,80.30
2018-03-28T17:48:59.167Z,86.30
2018-03-28T17:51:00.180Z,75.77
2018-03-28T17:53:01.170Z,79.93
2018-03-28T17:55:02.910Z,69.97
2018-03-28T17:57:03.923Z,69.60
2018-03-28T17:59:04.847Z,74.80
2018-03-28T18:01:05.817Z,70.00
2018-03-28T18:03:06.789Z,68.70
2018-03-28T18:05:07.764Z,74.20
2018-03-28T18:07:09.505Z,57.63
2018-03-28T18:09:10.485Z,70.93
2018-03-28T18:11:12.224Z,64.90
2018-03-28T18:13:13.197Z,56.40
2018-03-28T18:15:14.953Z,67.40
2018-03-28T18:17:15.923Z,61.70
2018-03-28T18:19:16.909Z,58.20
2018-03-28T18:21:18.016Z,61.73
2018-03-28T18:23:19.002Z,62.83
2018-03-28T18:25:20.034Z,64.90
2018-03-28T18:27:21.041Z,64.43
2018-03-28T18:29:22.789Z,61.10
2018-03-28T18:31:27.084Z,61.87
2018-03-28T18:33:28.077Z,61.47
2018-03-28T18:35:29.794Z,65.77
2018-03-28T18:37:30.849Z,58.50
2018-03-28T18:39:31.836Z,62.20
2018-03-28T18:41:33.619Z,69.23
2018-03-28T18:43:34.629Z,56.70
2018-03-28T18:45:36.379Z,61.87
2018-03-28T18:47:57.498Z,56.83
2018-03-28T18:49:58.528Z,53.17
2018-03-28T18:51:59.538Z,61.57
2018-03-28T18:54:00.721Z,64.37
2018-03-28T18:56:01.701Z,61.70
2018-03-28T18:58:03.133Z,57.00
2018-03-28T19:00:04.442Z,60.77
2018-03-28T19:02:05.479Z,61.30
2018-03-28T19:04:07.180Z,54.43
2018-03-28T19:06:08.164Z,58.03
2018-03-28T19:08:09.141Z,60.93
2018-03-28T19:10:10.116Z,59.93
2018-03-28T19:12:11.420Z,57.23
2018-03-28T19:14:14.299Z,65.80
2018-03-28T19:16:15.410Z,62.70
2018-03-28T19:18:16.425Z,60.50
2018-03-28T19:20:18.357Z,65.53
2018-03-28T19:22:19.619Z,64.33
2018-03-28T19:24:21.654Z,68.47
2018-03-28T19:26:22.666Z,61.60
2018-03-28T19:28:24.100Z,67.00
2018-03-28T19:30:27.840Z,65.73
2018-03-28T19:32:28.994Z,66.60
2018-03-28T19:34:31.218Z,77.57
2018-03-28T19:36:32.529Z,74.57
2018-03-28T19:38:33.752Z,68.37
2018-03-28T19:40:35.980Z,72.40
2018-03-28T19:42:37.689Z,77.20
2018-03-28T19:44:39.666Z,74.20
2018-03-28T19:46:41.805Z,76.60
2018-03-28T19:48:42.824Z,78.73
2018-03-28T19:50:43.784Z,76.67
2018-03-28T19:52:45.044Z,70.83
2018-03-28T19:54:46.214Z,60.03
2018-03-28T19:56:47.870Z,64.73
2018-03-28T19:58:52.789Z,62.50
2018-03-28T20:00:56.425Z,59.10
2018-03-28T20:03:01.831Z,61.97
2018-03-28T20:05:03.857Z,57.43
2018-03-28T20:07:10.978Z,61.47
2018-03-28T20:09:12.224Z,77.87
2018-03-28T20:11:13.920Z,67.33
2018-03-28T20:13:14.894Z,71.47
2018-03-28T20:15:15.895Z,60.37
2018-03-28T20:17:16.909Z,55.33
2018-03-28T20:19:18.712Z,60.53
2018-03-28T20:21:19.774Z,59.27
2018-03-28T20:23:21.589Z,60.87
2018-03-28T20:25:22.617Z,64.80
2018-03-28T20:27:23.604Z,63.47
2018-03-28T20:29:25.363Z,65.03
2018-03-28T20:31:27.088Z,62.23
2018-03-28T20:33:28.133Z,47.33
2018-03-28T20:35:29.115Z,50.90
2018-03-28T20:37:30.119Z,53.60
2018-03-28T20:39:31.156Z,52.33
2018-03-28T20:41:32.119Z,63.40
2018-03-28T20:43:33.388Z,59.90
2018-03-28T20:45:34.379Z,57.10
2018-03-28T20:47:35.343Z,62.93
2018-03-28T20:49:36.289Z,75.20
2018-03-28T20:51:37.268Z,62.73
2018-03-28T20:53:39.165Z,70.53
2018-03-28T20:55:40.928Z,71.83
2018-03-28T20:57:46.533Z,66.77
2018-03-28T20:59:47.519Z,66.27
2018-03-28T21:01:48.459Z,70.67
2018-03-28T21:03:49.472Z,69.83
2018-03-28T21:05:50.611Z,63.50
2018-03-28T21:07:51.840Z,71.40
2018-03-28T21:09:52.798Z,72.27
2018-03-28T21:11:53.867Z,75.17
2018-03-28T21:13:54.917Z,66.43
2018-03-28T21:15:56.062Z,69.17
2018-03-28T21:17:57.077Z,69.43
2018-03-28T21:19:58.080Z,67.30
2018-03-28T21:21:59.116Z,61.20
2018-03-28T21:24:00.103Z,57.03
2018-03-28T21:26:01.818Z,67.80
2018-03-28T21:28:02.775Z,58.80
2018-03-28T21:30:03.884Z,58.70
2018-03-28T21:32:04.879Z,60.93
2018-03-28T21:34:05.837Z,65.10
2018-03-28T21:36:06.902Z,63.00
2018-03-28T21:38:08.600Z,66.27
2018-03-28T21:40:09.688Z,60.47
2018-03-28T21:42:11.477Z,63.60
2018-03-28T21:44:12.473Z,58.37
2018-03-28T21:46:13.466Z,55.77
2018-03-28T21:48:14.528Z,62.23
2018-03-28T21:50:15.483Z,60.10
2018-03-28T21:52:17.180Z,55.10
2018-03-28T21:54:18.960Z,55.47
2018-03-28T21:56:20.873Z,60.60
2018-03-28T21:58:22.075Z,51.37
2018-03-28T22:00:23.974Z,58.77
2018-03-28T22:02:25.771Z,61.53
2018-03-28T22:04:26.803Z,61.87
2018-03-28T22:06:27.784Z,62.10
2018-03-28T22:08:29.525Z,62.07
2018-03-28T22:10:30.469Z,66.07
2018-03-28T22:12:32.184Z,59.27
2018-03-28T22:14:33.122Z,57.20
2018-03-28T22:16:34.059Z,56.23
2018-03-28T22:18:35.075Z,57.50
2018-03-28T22:20:36.020Z,65.13
2018-03-28T22:22:36.951Z,56.57
2018-03-28T22:24:38.921Z,57.80
2018-03-28T22:26:40.711Z,60.03
2018-03-28T22:28:41.709Z,63.53
2018-03-28T22:30:43.508Z,73.70
2018-03-28T22:32:44.465Z,65.93
2018-03-28T22:34:45.518Z,61.73
2018-03-28T22:36:46.515Z,72.90
2018-03-28T22:38:48.255Z,59.87
2018-03-28T22:40:49.336Z,73.43
2018-03-28T22:42:51.455Z,58.87
2018-03-28T22:44:52.976Z,66.20
2018-03-28T22:46:54.756Z,55.67
2018-03-28T22:48:55.820Z,45.63
2018-03-28T22:50:56.816Z,46.53
2018-03-28T22:52:57.742Z,41.60
2018-03-28T22:54:58.876Z,40.83
2018-03-28T22:56:59.908Z,37.50
2018-03-28T22:59:00.919Z,42.60
2018-03-28T23:01:02.712Z,36.60
2018-03-28T23:03:03.833Z,37.50
2018-03-28T23:05:04.990Z,38.57
2018-03-28T23:07:06.798Z,33.47
2018-03-28T23:09:07.852Z,40.17
2018-03-28T23:11:08.857Z,40.10
2018-03-28T23:13:10.027Z,30.60
2018-03-28T23:15:11.077Z,22.10
2018-03-28T23:17:12.096Z,15.47
2018-03-28T23:19:13.788Z,16.20
2018-03-28T23:21:14.743Z,18.30
2018-03-28T23:23:15.772Z,10.60
2018-03-28T23:25:16.789Z,14.00
2018-03-28T23:27:18.531Z,14.87
2018-03-28T23:29:19.551Z,11.83
2018-03-28T23:31:21.488Z,15.80
2018-03-28T23:33:23.292Z,12.27
2018-03-28T23:35:24.501Z,16.47
2018-03-28T23:37:25.505Z,19.93
2018-03-28T23:39:26.479Z,16.40
2018-03-28T23:41:27.410Z,15.80
2018-03-28T23:43:28.416Z,14.70
2018-03-28T23:45:29.468Z,17.03
2018-03-28T23:47:30.508Z,13.83
2018-03-28T23:49:31.552Z,16.83
2018-03-28T23:51:32.735Z,16.73
2018-03-28T23:53:34.004Z,10.63
2018-03-28T23:55:35.238Z,13.10
2018-03-28T23:57:36.317Z,14.00
2018-03-28T23:59:38.311Z,14.40
